sensor_id;sensor_type;location;lat;lon;timestamp;temperature;humidity
44431;DHT22;30135;47.866;-4.222;2023-06-19T00:00:40;19.50;90.10
44431;DHT22;30135;47.866;-4.222;2023-06-19T00:03:07;19.40;90.10
44431;DHT22;30135;47.866;-4.222;2023-06-19T00:05:34;19.40;90.20
44431;DHT22;30135;47.866;-4.222;2023-06-19T00:08:00;19.40;90.30
44431;DHT22;30135;47.866;-4.222;2023-06-19T00:10:26;19.40;90.30
44431;DHT22;30135;47.866;-4.222;2023-06-19T00:12:52;19.40;90.30
44431;DHT22;30135;47.866;-4.222;2023-06-19T00:15:18;19.40;90.30
44431;DHT22;30135;47.866;-4.222;2023-06-19T00:17:44;19.30;90.30
44431;DHT22;30135;47.866;-4.222;2023-06-19T00:20:10;19.30;90.30
44431;DHT22;30135;47.866;-4.222;2023-06-19T00:22:39;19.30;90.30
44431;DHT22;30135;47.866;-4.222;2023-06-19T00:25:06;19.20;90.60
44431;DHT22;30135;47.866;-4.222;2023-06-19T00:27:32;19.20;90.30
44431;DHT22;30135;47.866;-4.222;2023-06-19T00:29:58;19.20;90.30
44431;DHT22;30135;47.866;-4.222;2023-06-19T00:32:30;19.20;90.40
44431;DHT22;30135;47.866;-4.222;2023-06-19T00:34:56;19.20;90.50
44431;DHT22;30135;47.866;-4.222;2023-06-19T00:37:22;19.20;90.50
44431;DHT22;30135;47.866;-4.222;2023-06-19T00:39:48;19.10;90.50
44431;DHT22;30135;47.866;-4.222;2023-06-19T00:42:14;19.10;90.60
44431;DHT22;30135;47.866;-4.222;2023-06-19T00:44:41;19.10;90.60
44431;DHT22;30135;47.866;-4.222;2023-06-19T00:47:07;19.10;90.60
44431;DHT22;30135;47.866;-4.222;2023-06-19T00:49:33;19.10;90.60
44431;DHT22;30135;47.866;-4.222;2023-06-19T00:51:59;19.10;90.60
44431;DHT22;30135;47.866;-4.222;2023-06-19T00:54:25;19.00;90.60
44431;DHT22;30135;47.866;-4.222;2023-06-19T00:56:51;19.00;90.60
44431;DHT22;30135;47.866;-4.222;2023-06-19T00:59:19;19.00;90.60
44431;DHT22;30135;47.866;-4.222;2023-06-19T01:01:46;18.90;90.60
44431;DHT22;30135;47.866;-4.222;2023-06-19T01:04:12;18.90;90.60
44431;DHT22;30135;47.866;-4.222;2023-06-19T01:06:57;18.90;90.60
44431;DHT22;30135;47.866;-4.222;2023-06-19T01:09:35;18.90;90.60
44431;DHT22;30135;47.866;-4.222;2023-06-19T01:12:16;18.80;90.60
44431;DHT22;30135;47.866;-4.222;2023-06-19T01:15:02;18.80;90.60
44431;DHT22;30135;47.866;-4.222;2023-06-19T01:17:31;18.80;90.60
44431;DHT22;30135;47.866;-4.222;2023-06-19T01:19:58;18.70;90.70
44431;DHT22;30135;47.866;-4.222;2023-06-19T01:22:31;18.70;90.70
44431;DHT22;30135;47.866;-4.222;2023-06-19T01:24:57;18.70;90.80
44431;DHT22;30135;47.866;-4.222;2023-06-19T01:27:25;18.70;90.80
44431;DHT22;30135;47.866;-4.222;2023-06-19T01:29:52;18.60;90.80
44431;DHT22;30135;47.866;-4.222;2023-06-19T01:32:29;18.60;90.80
44431;DHT22;30135;47.866;-4.222;2023-06-19T01:35:00;18.60;90.90
44431;DHT22;30135;47.866;-4.222;2023-06-19T01:37:28;18.60;90.90
44431;DHT22;30135;47.866;-4.222;2023-06-19T01:39:58;18.60;91.00
44431;DHT22;30135;47.866;-4.222;2023-06-19T01:42:26;18.60;91.10
44431;DHT22;30135;47.866;-4.222;2023-06-19T01:44:53;18.60;91.10
44431;DHT22;30135;47.866;-4.222;2023-06-19T01:47:19;18.50;91.10
44431;DHT22;30135;47.866;-4.222;2023-06-19T01:49:47;18.50;91.20
44431;DHT22;30135;47.866;-4.222;2023-06-19T01:52:16;18.50;91.30
44431;DHT22;30135;47.866;-4.222;2023-06-19T01:54:42;18.60;91.50
44431;DHT22;30135;47.866;-4.222;2023-06-19T01:57:08;18.50;91.50
44431;DHT22;30135;47.866;-4.222;2023-06-19T01:59:35;18.50;91.50
44431;DHT22;30135;47.866;-4.222;2023-06-19T02:02:01;18.50;91.60
44431;DHT22;30135;47.866;-4.222;2023-06-19T02:04:29;18.60;91.80
44431;DHT22;30135;47.866;-4.222;2023-06-19T02:06:55;18.60;92.00
44431;DHT22;30135;47.866;-4.222;2023-06-19T02:09:21;18.60;92.20
44431;DHT22;30135;47.866;-4.222;2023-06-19T02:11:47;18.60;92.30
44431;DHT22;30135;47.866;-4.222;2023-06-19T02:14:13;18.60;92.50
44431;DHT22;30135;47.866;-4.222;2023-06-19T02:16:39;18.70;92.70
44431;DHT22;30135;47.866;-4.222;2023-06-19T02:19:12;18.70;92.80
44431;DHT22;30135;47.866;-4.222;2023-06-19T02:21:38;18.70;93.00
44431;DHT22;30135;47.866;-4.222;2023-06-19T02:24:05;18.80;93.10
44431;DHT22;30135;47.866;-4.222;2023-06-19T02:26:31;18.70;93.10
44431;DHT22;30135;47.866;-4.222;2023-06-19T02:28:57;18.80;93.20
44431;DHT22;30135;47.866;-4.222;2023-06-19T02:31:24;18.80;93.40
44431;DHT22;30135;47.866;-4.222;2023-06-19T02:33:50;18.80;93.50
44431;DHT22;30135;47.866;-4.222;2023-06-19T02:36:16;18.80;93.60
44431;DHT22;30135;47.866;-4.222;2023-06-19T02:38:48;18.90;93.70
44431;DHT22;30135;47.866;-4.222;2023-06-19T02:41:15;18.80;93.80
44431;DHT22;30135;47.866;-4.222;2023-06-19T02:43:42;18.90;93.90
44431;DHT22;30135;47.866;-4.222;2023-06-19T02:46:08;18.80;94.00
44431;DHT22;30135;47.866;-4.222;2023-06-19T02:48:35;18.90;94.10
44431;DHT22;30135;47.866;-4.222;2023-06-19T02:51:01;18.90;94.20
44431;DHT22;30135;47.866;-4.222;2023-06-19T02:53:27;18.90;94.30
44431;DHT22;30135;47.866;-4.222;2023-06-19T02:55:53;18.90;94.40
44431;DHT22;30135;47.866;-4.222;2023-06-19T02:58:18;18.90;94.40
44431;DHT22;30135;47.866;-4.222;2023-06-19T03:00:45;18.90;94.60
44431;DHT22;30135;47.866;-4.222;2023-06-19T03:03:12;18.90;94.50
44431;DHT22;30135;47.866;-4.222;2023-06-19T03:05:38;18.90;94.60
44431;DHT22;30135;47.866;-4.222;2023-06-19T03:08:04;18.90;94.60
44431;DHT22;30135;47.866;-4.222;2023-06-19T03:10:31;18.90;94.60
44431;DHT22;30135;47.866;-4.222;2023-06-19T03:12:57;18.90;94.60
44431;DHT22;30135;47.866;-4.222;2023-06-19T03:15:24;18.90;94.70
44431;DHT22;30135;47.866;-4.222;2023-06-19T03:17:52;18.90;94.70
44431;DHT22;30135;47.866;-4.222;2023-06-19T03:20:19;18.90;94.70
44431;DHT22;30135;47.866;-4.222;2023-06-19T03:22:46;18.90;94.70
44431;DHT22;30135;47.866;-4.222;2023-06-19T03:25:13;19.00;94.80
44431;DHT22;30135;47.866;-4.222;2023-06-19T03:27:39;19.00;94.80
44431;DHT22;30135;47.866;-4.222;2023-06-19T03:30:05;18.90;94.80
44431;DHT22;30135;47.866;-4.222;2023-06-19T03:32:33;18.90;94.90
44431;DHT22;30135;47.866;-4.222;2023-06-19T03:35:00;19.00;95.00
44431;DHT22;30135;47.866;-4.222;2023-06-19T03:37:27;18.90;95.00
44431;DHT22;30135;47.866;-4.222;2023-06-19T03:39:53;18.90;95.10
44431;DHT22;30135;47.866;-4.222;2023-06-19T03:42:19;19.00;95.20
44431;DHT22;30135;47.866;-4.222;2023-06-19T03:44:45;19.00;95.20
44431;DHT22;30135;47.866;-4.222;2023-06-19T03:47:11;19.00;95.30
44431;DHT22;30135;47.866;-4.222;2023-06-19T03:49:37;19.00;95.30
44431;DHT22;30135;47.866;-4.222;2023-06-19T03:52:03;19.00;95.40
44431;DHT22;30135;47.866;-4.222;2023-06-19T03:54:29;18.90;95.40
44431;DHT22;30135;47.866;-4.222;2023-06-19T03:56:55;18.90;95.40
44431;DHT22;30135;47.866;-4.222;2023-06-19T03:59:21;18.90;95.40
44431;DHT22;30135;47.866;-4.222;2023-06-19T04:01:47;19.00;95.50
44431;DHT22;30135;47.866;-4.222;2023-06-19T04:04:13;19.00;95.50
44431;DHT22;30135;47.866;-4.222;2023-06-19T04:06:39;18.90;95.50
44431;DHT22;30135;47.866;-4.222;2023-06-19T04:09:05;18.90;95.50
44431;DHT22;30135;47.866;-4.222;2023-06-19T04:11:31;18.90;95.50
44431;DHT22;30135;47.866;-4.222;2023-06-19T04:13:57;18.90;95.50
44431;DHT22;30135;47.866;-4.222;2023-06-19T04:16:23;18.90;95.50
44431;DHT22;30135;47.866;-4.222;2023-06-19T04:18:49;18.90;95.50
44431;DHT22;30135;47.866;-4.222;2023-06-19T04:21:15;18.80;95.50
44431;DHT22;30135;47.866;-4.222;2023-06-19T04:23:41;18.90;95.50
44431;DHT22;30135;47.866;-4.222;2023-06-19T04:26:07;18.80;95.50
44431;DHT22;30135;47.866;-4.222;2023-06-19T04:28:33;18.80;95.50
44431;DHT22;30135;47.866;-4.222;2023-06-19T04:30:59;18.80;95.50
44431;DHT22;30135;47.866;-4.222;2023-06-19T04:33:29;18.80;95.60
44431;DHT22;30135;47.866;-4.222;2023-06-19T04:35:55;18.80;95.60
44431;DHT22;30135;47.866;-4.222;2023-06-19T04:38:22;18.80;95.60
44431;DHT22;30135;47.866;-4.222;2023-06-19T04:40:51;18.80;95.60
44431;DHT22;30135;47.866;-4.222;2023-06-19T04:43:17;18.70;95.60
44431;DHT22;30135;47.866;-4.222;2023-06-19T04:45:44;18.80;95.70
44431;DHT22;30135;47.866;-4.222;2023-06-19T04:48:10;18.80;95.70
44431;DHT22;30135;47.866;-4.222;2023-06-19T04:50:37;18.70;95.70
44431;DHT22;30135;47.866;-4.222;2023-06-19T04:53:03;18.70;95.70
44431;DHT22;30135;47.866;-4.222;2023-06-19T04:55:29;18.80;95.80
44431;DHT22;30135;47.866;-4.222;2023-06-19T04:57:56;18.80;96.20
44431;DHT22;30135;47.866;-4.222;2023-06-19T05:00:22;18.70;95.80
44431;DHT22;30135;47.866;-4.222;2023-06-19T05:02:49;18.70;95.80
44431;DHT22;30135;47.866;-4.222;2023-06-19T05:05:16;18.70;95.90
44431;DHT22;30135;47.866;-4.222;2023-06-19T05:07:43;18.70;95.90
44431;DHT22;30135;47.866;-4.222;2023-06-19T05:10:10;18.70;95.90
44431;DHT22;30135;47.866;-4.222;2023-06-19T05:12:36;18.70;95.90
44431;DHT22;30135;47.866;-4.222;2023-06-19T05:15:03;18.70;96.00
44431;DHT22;30135;47.866;-4.222;2023-06-19T05:17:29;18.70;96.00
44431;DHT22;30135;47.866;-4.222;2023-06-19T05:19:55;18.70;96.00
44431;DHT22;30135;47.866;-4.222;2023-06-19T05:22:21;18.70;96.10
44431;DHT22;30135;47.866;-4.222;2023-06-19T05:24:49;18.70;96.10
44431;DHT22;30135;47.866;-4.222;2023-06-19T05:27:15;18.70;96.20
44431;DHT22;30135;47.866;-4.222;2023-06-19T05:29:41;18.70;96.20
44431;DHT22;30135;47.866;-4.222;2023-06-19T05:32:07;18.70;96.30
44431;DHT22;30135;47.866;-4.222;2023-06-19T05:34:33;18.70;96.30
44431;DHT22;30135;47.866;-4.222;2023-06-19T05:36:59;18.70;96.30
44431;DHT22;30135;47.866;-4.222;2023-06-19T05:39:29;18.70;96.40
44431;DHT22;30135;47.866;-4.222;2023-06-19T05:41:55;18.70;96.40
44431;DHT22;30135;47.866;-4.222;2023-06-19T05:44:21;18.70;96.40
44431;DHT22;30135;47.866;-4.222;2023-06-19T05:46:47;18.70;96.50
44431;DHT22;30135;47.866;-4.222;2023-06-19T05:49:13;18.80;96.50
44431;DHT22;30135;47.866;-4.222;2023-06-19T05:51:39;18.70;96.60
44431;DHT22;30135;47.866;-4.222;2023-06-19T05:54:05;18.80;96.70
44431;DHT22;30135;47.866;-4.222;2023-06-19T05:56:31;18.80;96.80
44431;DHT22;30135;47.866;-4.222;2023-06-19T05:59:02;18.80;96.80
44431;DHT22;30135;47.866;-4.222;2023-06-19T06:01:29;18.80;96.90
44431;DHT22;30135;47.866;-4.222;2023-06-19T06:03:56;18.90;97.00
44431;DHT22;30135;47.866;-4.222;2023-06-19T06:06:25;18.90;97.00
44431;DHT22;30135;47.866;-4.222;2023-06-19T06:08:51;18.90;97.00
44431;DHT22;30135;47.866;-4.222;2023-06-19T06:11:18;18.90;97.10
44431;DHT22;30135;47.866;-4.222;2023-06-19T06:13:44;18.90;97.20
44431;DHT22;30135;47.866;-4.222;2023-06-19T06:16:10;19.00;97.20
44431;DHT22;30135;47.866;-4.222;2023-06-19T06:18:35;19.00;97.20
44431;DHT22;30135;47.866;-4.222;2023-06-19T06:21:01;19.00;97.20
44431;DHT22;30135;47.866;-4.222;2023-06-19T06:23:28;19.10;97.20
44431;DHT22;30135;47.866;-4.222;2023-06-19T06:25:54;19.10;97.20
44431;DHT22;30135;47.866;-4.222;2023-06-19T06:28:27;19.20;97.10
44431;DHT22;30135;47.866;-4.222;2023-06-19T06:30:52;19.20;97.10
44431;DHT22;30135;47.866;-4.222;2023-06-19T06:33:19;19.30;97.10
44431;DHT22;30135;47.866;-4.222;2023-06-19T06:35:45;19.30;97.10
44431;DHT22;30135;47.866;-4.222;2023-06-19T06:38:11;19.40;97.10
44431;DHT22;30135;47.866;-4.222;2023-06-19T06:40:37;19.40;97.10
44431;DHT22;30135;47.866;-4.222;2023-06-19T06:43:02;19.40;97.00
44431;DHT22;30135;47.866;-4.222;2023-06-19T06:45:28;19.40;97.10
44431;DHT22;30135;47.866;-4.222;2023-06-19T06:47:54;19.50;97.10
44431;DHT22;30135;47.866;-4.222;2023-06-19T06:50:20;19.60;97.10
44431;DHT22;30135;47.866;-4.222;2023-06-19T06:52:46;19.60;97.10
44431;DHT22;30135;47.866;-4.222;2023-06-19T06:55:12;19.60;97.30
44431;DHT22;30135;47.866;-4.222;2023-06-19T06:57:39;19.70;97.30
44431;DHT22;30135;47.866;-4.222;2023-06-19T07:00:05;19.70;97.30
44431;DHT22;30135;47.866;-4.222;2023-06-19T07:02:35;19.70;97.30
44431;DHT22;30135;47.866;-4.222;2023-06-19T07:05:01;19.80;97.20
44431;DHT22;30135;47.866;-4.222;2023-06-19T07:07:27;19.80;97.20
44431;DHT22;30135;47.866;-4.222;2023-06-19T07:09:52;19.80;97.10
44431;DHT22;30135;47.866;-4.222;2023-06-19T07:12:19;19.80;96.90
44431;DHT22;30135;47.866;-4.222;2023-06-19T07:14:44;19.90;96.80
44431;DHT22;30135;47.866;-4.222;2023-06-19T07:17:10;19.90;96.70
44431;DHT22;30135;47.866;-4.222;2023-06-19T07:19:36;19.90;96.60
44431;DHT22;30135;47.866;-4.222;2023-06-19T07:22:02;20.00;96.60
44431;DHT22;30135;47.866;-4.222;2023-06-19T07:24:28;20.00;96.50
44431;DHT22;30135;47.866;-4.222;2023-06-19T07:26:54;20.00;96.40
44431;DHT22;30135;47.866;-4.222;2023-06-19T07:29:22;20.00;96.40
44431;DHT22;30135;47.866;-4.222;2023-06-19T07:31:48;20.10;96.40
44431;DHT22;30135;47.866;-4.222;2023-06-19T07:34:14;20.10;96.40
44431;DHT22;30135;47.866;-4.222;2023-06-19T07:36:40;20.10;96.40
44431;DHT22;30135;47.866;-4.222;2023-06-19T07:39:07;20.20;96.30
44431;DHT22;30135;47.866;-4.222;2023-06-19T07:41:33;20.20;96.20
44431;DHT22;30135;47.866;-4.222;2023-06-19T07:43:59;20.20;96.20
44431;DHT22;30135;47.866;-4.222;2023-06-19T07:46:25;20.20;96.20
44431;DHT22;30135;47.866;-4.222;2023-06-19T07:48:51;20.20;96.10
44431;DHT22;30135;47.866;-4.222;2023-06-19T07:51:17;20.30;96.00
44431;DHT22;30135;47.866;-4.222;2023-06-19T07:53:43;20.30;96.00
44431;DHT22;30135;47.866;-4.222;2023-06-19T07:56:09;20.20;95.80
44431;DHT22;30135;47.866;-4.222;2023-06-19T07:58:35;20.30;95.80
44431;DHT22;30135;47.866;-4.222;2023-06-19T08:01:01;20.30;95.70
44431;DHT22;30135;47.866;-4.222;2023-06-19T08:03:27;20.30;95.60
44431;DHT22;30135;47.866;-4.222;2023-06-19T08:05:53;20.30;95.50
44431;DHT22;30135;47.866;-4.222;2023-06-19T08:08:19;20.30;95.40
44431;DHT22;30135;47.866;-4.222;2023-06-19T08:10:45;20.30;95.30
44431;DHT22;30135;47.866;-4.222;2023-06-19T08:13:11;20.30;95.30
44431;DHT22;30135;47.866;-4.222;2023-06-19T08:15:37;20.30;95.30
44431;DHT22;30135;47.866;-4.222;2023-06-19T08:18:03;20.30;95.20
44431;DHT22;30135;47.866;-4.222;2023-06-19T08:20:29;20.30;95.20
44431;DHT22;30135;47.866;-4.222;2023-06-19T08:22:55;20.30;95.20
44431;DHT22;30135;47.866;-4.222;2023-06-19T08:25:24;20.30;95.30
44431;DHT22;30135;47.866;-4.222;2023-06-19T08:27:53;20.30;95.20
44431;DHT22;30135;47.866;-4.222;2023-06-19T08:30:19;20.30;95.30
44431;DHT22;30135;47.866;-4.222;2023-06-19T08:32:46;20.30;95.30
44431;DHT22;30135;47.866;-4.222;2023-06-19T08:35:14;20.40;95.30
44431;DHT22;30135;47.866;-4.222;2023-06-19T08:37:41;20.40;95.40
44431;DHT22;30135;47.866;-4.222;2023-06-19T08:40:07;20.40;95.40
44431;DHT22;30135;47.866;-4.222;2023-06-19T08:42:36;20.50;95.40
44431;DHT22;30135;47.866;-4.222;2023-06-19T08:45:02;20.50;95.40
44431;DHT22;30135;47.866;-4.222;2023-06-19T08:47:32;20.50;95.20
44431;DHT22;30135;47.866;-4.222;2023-06-19T08:49:59;20.50;95.20
44431;DHT22;30135;47.866;-4.222;2023-06-19T08:52:25;20.60;95.10
44431;DHT22;30135;47.866;-4.222;2023-06-19T08:54:51;20.60;94.90
44431;DHT22;30135;47.866;-4.222;2023-06-19T08:57:17;20.60;94.80
44431;DHT22;30135;47.866;-4.222;2023-06-19T08:59:50;20.60;94.90
44431;DHT22;30135;47.866;-4.222;2023-06-19T09:02:16;20.60;94.90
44431;DHT22;30135;47.866;-4.222;2023-06-19T09:04:42;20.60;95.00
44431;DHT22;30135;47.866;-4.222;2023-06-19T09:07:09;20.70;95.00
44431;DHT22;30135;47.866;-4.222;2023-06-19T09:09:44;20.70;94.90
44431;DHT22;30135;47.866;-4.222;2023-06-19T09:12:14;20.70;94.60
44431;DHT22;30135;47.866;-4.222;2023-06-19T09:14:51;20.70;94.40
44431;DHT22;30135;47.866;-4.222;2023-06-19T09:17:21;20.70;94.40
44431;DHT22;30135;47.866;-4.222;2023-06-19T09:19:50;20.70;94.40
44431;DHT22;30135;47.866;-4.222;2023-06-19T09:22:18;20.60;94.40
44431;DHT22;30135;47.866;-4.222;2023-06-19T09:24:47;20.60;94.40
44431;DHT22;30135;47.866;-4.222;2023-06-19T09:27:15;20.60;94.40
44431;DHT22;30135;47.866;-4.222;2023-06-19T09:29:47;20.60;94.50
44431;DHT22;30135;47.866;-4.222;2023-06-19T09:32:24;20.60;94.80
44431;DHT22;30135;47.866;-4.222;2023-06-19T09:34:55;20.60;94.90
44431;DHT22;30135;47.866;-4.222;2023-06-19T09:37:29;20.70;95.10
44431;DHT22;30135;47.866;-4.222;2023-06-19T09:40:02;20.70;95.20
44431;DHT22;30135;47.866;-4.222;2023-06-19T09:42:42;20.70;95.20
44431;DHT22;30135;47.866;-4.222;2023-06-19T09:45:11;20.70;95.10
44431;DHT22;30135;47.866;-4.222;2023-06-19T09:47:45;20.80;95.20
44431;DHT22;30135;47.866;-4.222;2023-06-19T09:50:14;20.80;95.20
44431;DHT22;30135;47.866;-4.222;2023-06-19T09:52:42;20.90;95.10
44431;DHT22;30135;47.866;-4.222;2023-06-19T09:55:10;20.90;95.00
44431;DHT22;30135;47.866;-4.222;2023-06-19T09:57:38;21.00;94.90
44431;DHT22;30135;47.866;-4.222;2023-06-19T10:00:07;20.90;94.60
44431;DHT22;30135;47.866;-4.222;2023-06-19T10:02:42;21.00;94.80
44431;DHT22;30135;47.866;-4.222;2023-06-19T10:05:09;21.00;94.60
44431;DHT22;30135;47.866;-4.222;2023-06-19T10:07:38;21.10;94.70
44431;DHT22;30135;47.866;-4.222;2023-06-19T10:10:10;21.10;94.60
44431;DHT22;30135;47.866;-4.222;2023-06-19T10:12:43;21.10;94.50
44431;DHT22;30135;47.866;-4.222;2023-06-19T10:17:49;21.20;94.10
44431;DHT22;30135;47.866;-4.222;2023-06-19T10:20:36;21.30;94.00
44431;DHT22;30135;47.866;-4.222;2023-06-19T10:23:15;21.40;93.70
44431;DHT22;30135;47.866;-4.222;2023-06-19T10:25:49;21.40;93.50
44431;DHT22;30135;47.866;-4.222;2023-06-19T10:28:26;21.50;93.50
44431;DHT22;30135;47.866;-4.222;2023-06-19T10:30:54;21.60;93.60
44431;DHT22;30135;47.866;-4.222;2023-06-19T10:33:26;21.70;93.20
44431;DHT22;30135;47.866;-4.222;2023-06-19T10:35:54;21.80;92.90
44431;DHT22;30135;47.866;-4.222;2023-06-19T10:38:20;21.90;92.60
44431;DHT22;30135;47.866;-4.222;2023-06-19T10:40:47;22.00;92.10
44431;DHT22;30135;47.866;-4.222;2023-06-19T10:43:22;22.00;92.00
44431;DHT22;30135;47.866;-4.222;2023-06-19T10:45:51;22.10;91.40
44431;DHT22;30135;47.866;-4.222;2023-06-19T10:48:21;22.10;91.40
44431;DHT22;30135;47.866;-4.222;2023-06-19T10:50:49;22.20;91.00
44431;DHT22;30135;47.866;-4.222;2023-06-19T10:53:30;22.20;90.80
44431;DHT22;30135;47.866;-4.222;2023-06-19T10:55:58;22.30;89.80
44431;DHT22;30135;47.866;-4.222;2023-06-19T10:58:26;22.20;90.00
44431;DHT22;30135;47.866;-4.222;2023-06-19T11:00:53;22.20;88.60
44431;DHT22;30135;47.866;-4.222;2023-06-19T11:03:21;22.20;88.30
44431;DHT22;30135;47.866;-4.222;2023-06-19T11:05:48;22.20;87.60
44431;DHT22;30135;47.866;-4.222;2023-06-19T11:08:21;22.10;87.10
44431;DHT22;30135;47.866;-4.222;2023-06-19T11:10:48;22.10;86.50
44431;DHT22;30135;47.866;-4.222;2023-06-19T11:13:19;22.20;86.50
44431;DHT22;30135;47.866;-4.222;2023-06-19T11:15:49;22.10;86.00
44431;DHT22;30135;47.866;-4.222;2023-06-19T11:18:17;22.10;85.50
44431;DHT22;30135;47.866;-4.222;2023-06-19T11:20:53;22.10;85.30
44431;DHT22;30135;47.866;-4.222;2023-06-19T11:23:26;22.10;84.70
44431;DHT22;30135;47.866;-4.222;2023-06-19T11:25:54;22.10;85.10
44431;DHT22;30135;47.866;-4.222;2023-06-19T11:28:23;22.00;85.00
44431;DHT22;30135;47.866;-4.222;2023-06-19T11:31:00;22.00;84.60
44431;DHT22;30135;47.866;-4.222;2023-06-19T11:33:30;22.10;84.20
44431;DHT22;30135;47.866;-4.222;2023-06-19T11:35:59;22.10;84.40
44431;DHT22;30135;47.866;-4.222;2023-06-19T11:38:27;22.20;84.40
44431;DHT22;30135;47.866;-4.222;2023-06-19T11:40:55;22.20;84.40
44431;DHT22;30135;47.866;-4.222;2023-06-19T11:43:25;22.30;84.20
44431;DHT22;30135;47.866;-4.222;2023-06-19T11:45:51;22.30;83.70
44431;DHT22;30135;47.866;-4.222;2023-06-19T11:48:25;22.40;84.10
44431;DHT22;30135;47.866;-4.222;2023-06-19T11:50:52;22.60;83.50
44431;DHT22;30135;47.866;-4.222;2023-06-19T11:53:23;22.70;83.20
44431;DHT22;30135;47.866;-4.222;2023-06-19T11:55:50;22.80;82.60
44431;DHT22;30135;47.866;-4.222;2023-06-19T11:58:17;22.80;82.10
44431;DHT22;30135;47.866;-4.222;2023-06-19T12:00:46;22.90;81.90
44431;DHT22;30135;47.866;-4.222;2023-06-19T12:03:13;22.90;81.50
44431;DHT22;30135;47.866;-4.222;2023-06-19T12:05:39;23.00;80.60
44431;DHT22;30135;47.866;-4.222;2023-06-19T12:08:05;23.00;80.20
44431;DHT22;30135;47.866;-4.222;2023-06-19T12:10:32;23.10;79.80
44431;DHT22;30135;47.866;-4.222;2023-06-19T12:12:59;23.10;79.10
44431;DHT22;30135;47.866;-4.222;2023-06-19T12:15:25;23.10;78.70
44431;DHT22;30135;47.866;-4.222;2023-06-19T12:17:53;23.10;78.50
44431;DHT22;30135;47.866;-4.222;2023-06-19T12:20:19;23.20;78.20
44431;DHT22;30135;47.866;-4.222;2023-06-19T12:22:45;23.20;77.70
44431;DHT22;30135;47.866;-4.222;2023-06-19T12:25:11;23.20;77.70
44431;DHT22;30135;47.866;-4.222;2023-06-19T12:27:38;23.20;77.70
44431;DHT22;30135;47.866;-4.222;2023-06-19T12:30:04;23.20;78.00
44431;DHT22;30135;47.866;-4.222;2023-06-19T12:32:31;23.10;78.10
44431;DHT22;30135;47.866;-4.222;2023-06-19T12:34:57;23.10;78.30
44431;DHT22;30135;47.866;-4.222;2023-06-19T12:37:23;23.10;78.30
44431;DHT22;30135;47.866;-4.222;2023-06-19T12:39:50;23.10;78.20
44431;DHT22;30135;47.866;-4.222;2023-06-19T12:42:17;23.10;77.80
44431;DHT22;30135;47.866;-4.222;2023-06-19T12:44:43;23.00;77.40
44431;DHT22;30135;47.866;-4.222;2023-06-19T12:47:11;23.00;77.70
44431;DHT22;30135;47.866;-4.222;2023-06-19T12:49:40;23.00;78.00
44431;DHT22;30135;47.866;-4.222;2023-06-19T12:52:07;22.90;78.00
44431;DHT22;30135;47.866;-4.222;2023-06-19T12:54:33;23.00;78.20
44431;DHT22;30135;47.866;-4.222;2023-06-19T12:56:59;23.00;77.70
44431;DHT22;30135;47.866;-4.222;2023-06-19T12:59:25;23.00;77.20
44431;DHT22;30135;47.866;-4.222;2023-06-19T13:01:51;23.10;77.00
44431;DHT22;30135;47.866;-4.222;2023-06-19T13:04:17;23.10;76.60
44431;DHT22;30135;47.866;-4.222;2023-06-19T13:06:43;23.10;76.30
44431;DHT22;30135;47.866;-4.222;2023-06-19T13:09:09;23.10;75.70
44431;DHT22;30135;47.866;-4.222;2023-06-19T13:11:36;23.10;75.80
44431;DHT22;30135;47.866;-4.222;2023-06-19T13:14:02;23.10;75.70
44431;DHT22;30135;47.866;-4.222;2023-06-19T13:16:27;23.10;75.80
44431;DHT22;30135;47.866;-4.222;2023-06-19T13:18:53;23.10;76.00
44431;DHT22;30135;47.866;-4.222;2023-06-19T13:21:19;23.20;76.10
44431;DHT22;30135;47.866;-4.222;2023-06-19T13:23:45;23.20;75.30
44431;DHT22;30135;47.866;-4.222;2023-06-19T13:26:14;23.20;75.60
44431;DHT22;30135;47.866;-4.222;2023-06-19T13:28:41;23.20;76.20
44431;DHT22;30135;47.866;-4.222;2023-06-19T13:31:07;23.10;76.70
44431;DHT22;30135;47.866;-4.222;2023-06-19T13:33:33;23.10;77.30
44431;DHT22;30135;47.866;-4.222;2023-06-19T13:35:59;23.00;77.70
44431;DHT22;30135;47.866;-4.222;2023-06-19T13:38:25;23.00;77.90
44431;DHT22;30135;47.866;-4.222;2023-06-19T13:40:51;22.90;78.30
44431;DHT22;30135;47.866;-4.222;2023-06-19T13:43:17;22.80;78.80
44431;DHT22;30135;47.866;-4.222;2023-06-19T13:45:43;22.80;80.10
44431;DHT22;30135;47.866;-4.222;2023-06-19T13:48:09;22.80;79.80
44431;DHT22;30135;47.866;-4.222;2023-06-19T13:50:36;22.80;79.90
44431;DHT22;30135;47.866;-4.222;2023-06-19T13:53:02;22.80;80.30
44431;DHT22;30135;47.866;-4.222;2023-06-19T13:55:28;22.80;80.50
44431;DHT22;30135;47.866;-4.222;2023-06-19T13:57:54;22.70;80.60
44431;DHT22;30135;47.866;-4.222;2023-06-19T14:00:21;22.80;81.00
44431;DHT22;30135;47.866;-4.222;2023-06-19T14:02:47;22.80;81.40
44431;DHT22;30135;47.866;-4.222;2023-06-19T14:05:14;22.80;81.40
44431;DHT22;30135;47.866;-4.222;2023-06-19T14:07:41;22.80;81.40
44431;DHT22;30135;47.866;-4.222;2023-06-19T14:10:08;22.80;81.20
44431;DHT22;30135;47.866;-4.222;2023-06-19T14:12:35;22.80;81.10
44431;DHT22;30135;47.866;-4.222;2023-06-19T14:15:01;22.80;81.00
44431;DHT22;30135;47.866;-4.222;2023-06-19T14:17:27;22.80;80.90
44431;DHT22;30135;47.866;-4.222;2023-06-19T14:19:54;22.80;80.80
44431;DHT22;30135;47.866;-4.222;2023-06-19T14:22:22;22.80;81.00
44431;DHT22;30135;47.866;-4.222;2023-06-19T14:24:48;22.80;81.10
44431;DHT22;30135;47.866;-4.222;2023-06-19T14:27:14;22.80;80.80
44431;DHT22;30135;47.866;-4.222;2023-06-19T14:29:40;22.80;80.40
44431;DHT22;30135;47.866;-4.222;2023-06-19T14:32:06;22.80;80.30
44431;DHT22;30135;47.866;-4.222;2023-06-19T14:34:33;22.80;79.90
44431;DHT22;30135;47.866;-4.222;2023-06-19T14:37:00;22.80;79.40
44431;DHT22;30135;47.866;-4.222;2023-06-19T14:39:26;22.80;79.40
44431;DHT22;30135;47.866;-4.222;2023-06-19T14:41:52;22.80;79.50
44431;DHT22;30135;47.866;-4.222;2023-06-19T14:44:21;22.80;79.30
44431;DHT22;30135;47.866;-4.222;2023-06-19T14:46:47;22.80;78.90
44431;DHT22;30135;47.866;-4.222;2023-06-19T14:49:14;22.80;79.00
44431;DHT22;30135;47.866;-4.222;2023-06-19T14:51:44;22.80;79.40
44431;DHT22;30135;47.866;-4.222;2023-06-19T14:54:10;22.80;79.50
44431;DHT22;30135;47.866;-4.222;2023-06-19T14:56:36;22.70;79.50
44431;DHT22;30135;47.866;-4.222;2023-06-19T14:59:03;22.70;79.30
44431;DHT22;30135;47.866;-4.222;2023-06-19T15:01:29;22.70;79.30
44431;DHT22;30135;47.866;-4.222;2023-06-19T15:03:55;22.70;79.30
44431;DHT22;30135;47.866;-4.222;2023-06-19T15:06:21;22.60;79.10
44431;DHT22;30135;47.866;-4.222;2023-06-19T15:08:47;22.60;79.10
44431;DHT22;30135;47.866;-4.222;2023-06-19T15:11:13;22.60;79.30
44431;DHT22;30135;47.866;-4.222;2023-06-19T15:13:39;22.50;79.30
44431;DHT22;30135;47.866;-4.222;2023-06-19T15:16:05;22.60;79.50
44431;DHT22;30135;47.866;-4.222;2023-06-19T15:18:33;22.50;79.70